Skip Navigation Links
NOAA logo - Click to go to the NOAA homepage
NOAA's National Weather Service
Alaska Aviation Weather Unit
  NWS logo - Click to go to the NWS homepage
Left Navbar Graphic     02 AKDT = 10 GMT

   
NOAA is celebrating 200 years of science, service, and stewardship. Visit the NOAA 200th celebration Web site to learn more.
USA.gov is the U.S. Government's official Web portal to all Federal, state and local government Web resources and services.
Facebook
NWS on Facebook

AAWU Home :: Display TAF Add Bookmark
TAF PACD 270532Z 2706/2806 10016KT P6SM SCT020 BKN035=
METAR PACD 270453Z AUTO 10015KT 10SM FEW042 01/M06 A2936=

METAR PACD 270553Z AUTO 09017KT 10SM CLR 00/M06 A2936=

PACD 270632Z AUTO 03012KT 10SM CLR M02/M07 A2936=

METAR PACD 270653Z AUTO 03011KT 10SM CLR M03/M06 A2937=

METAR PACD 270753Z AUTO 03009KT 10SM CLR M03/M07 A2938=

METAR PACD 270853Z AUTO 03008KT 10SM CLR M04/M07 A2937=

METAR PACD 270953Z AUTO 01010KT 10SM CLR M04/M07 A2936=


NOAA's National Weather Service
Alaska Aviation Weather Unit
6930 Sand Lake Road
Anchorage, AK 99502-1845
Disclaimer
Credits
Glossary
Privacy Policy
About Us
Career Opportunities
Contact AAWU Internet Services Site last modified: April, 17th 2012